LKHC weather

Hořice Airport
Hořice, Hradec Králové Region, Czech Republic

Public forecast

Using degrees Celsius for public forecast. Weather courtesy of forecast.io.

Closest aviation weather report (METAR) to Hořice Airport

Closest report is Pardubice Airport, 21.6 nm (39.9 km) SSE. Retrieved 2019/11/17 18:00 UTC (56 minutes ago):

LKPD 171800Z 13015KT CAVOK 14/08 Q1007 RMK BLACK

Closest aviation forecast (TAF) to Hořice Airport

Closest forecast is Pardubice Airport, 21.6 nm (39.9 km) SSE. Retrieved 2019/11/17 18:06 UTC (50 minutes ago):

TAF LKPD 171800Z 1718/1818 CNL